createdAt,value
2023-01-25T00:01:44.343Z,18.69
2023-01-25T00:04:13.529Z,18.69
2023-01-25T00:06:41.317Z,18.69
2023-01-25T00:09:08.988Z,18.69
2023-01-25T00:11:37.558Z,18.68
2023-01-25T00:14:05.451Z,18.68
2023-01-25T00:16:33.254Z,18.67
2023-01-25T00:19:00.941Z,18.67
2023-01-25T00:21:30.018Z,18.66
2023-01-25T00:23:57.855Z,18.67
2023-01-25T00:26:25.533Z,18.66
2023-01-25T00:28:53.412Z,18.65
2023-01-25T00:31:23.342Z,18.66
2023-01-25T00:33:52.202Z,18.67
2023-01-25T00:36:33.011Z,18.65
2023-01-25T00:39:00.676Z,18.66
2023-01-25T00:41:28.339Z,18.63
2023-01-25T00:43:56.022Z,18.63
2023-01-25T00:46:23.871Z,18.61
2023-01-25T00:48:54.197Z,18.61
2023-01-25T00:51:21.990Z,18.60
2023-01-25T00:53:51.025Z,18.61
2023-01-25T00:56:18.690Z,18.62
2023-01-25T00:58:46.415Z,18.60
2023-01-25T01:01:14.286Z,18.61
2023-01-25T01:03:41.987Z,18.59
2023-01-25T01:06:10.617Z,18.62
2023-01-25T01:08:40.124Z,18.60
2023-01-25T01:11:10.458Z,18.60
2023-01-25T01:13:38.301Z,18.59
2023-01-25T01:16:08.280Z,18.59
2023-01-25T01:18:36.120Z,18.59
2023-01-25T01:21:03.995Z,18.59
2023-01-25T01:23:31.916Z,18.59
2023-01-25T01:26:00.744Z,18.59
2023-01-25T01:28:30.517Z,18.59
2023-01-25T01:31:01.123Z,18.59
2023-01-25T01:33:28.789Z,18.59
2023-01-25T01:35:56.463Z,18.59
2023-01-25T01:38:24.125Z,18.58
2023-01-25T01:40:51.917Z,18.59
2023-01-25T01:43:20.223Z,18.58
2023-01-25T01:45:53.948Z,18.59
2023-01-25T01:48:23.004Z,18.59
2023-01-25T01:50:53.689Z,18.60
2023-01-25T01:53:21.526Z,18.60
2023-01-25T01:55:49.217Z,18.59
2023-01-25T01:58:16.895Z,18.59
2023-01-25T02:00:44.567Z,18.59
2023-01-25T02:03:13.677Z,18.58
2023-01-25T02:05:44.001Z,18.59
2023-01-25T02:08:11.910Z,18.59
2023-01-25T02:10:39.649Z,18.60
2023-01-25T02:13:07.312Z,18.60
2023-01-25T02:15:38.402Z,18.60
2023-01-25T02:18:06.213Z,18.59
2023-01-25T02:20:37.501Z,18.58
2023-01-25T02:23:09.646Z,18.57
2023-01-25T02:25:38.729Z,18.56
2023-01-25T02:28:08.356Z,18.56
2023-01-25T02:30:36.171Z,18.55
2023-01-25T02:33:03.842Z,18.54
2023-01-25T02:35:39.314Z,18.53
2023-01-25T02:38:06.984Z,18.52
2023-01-25T02:40:36.034Z,18.51
2023-01-25T02:43:05.043Z,18.50
2023-01-25T02:45:32.751Z,18.50
2023-01-25T02:48:00.451Z,18.48
2023-01-25T02:50:28.220Z,18.50
2023-01-25T02:52:55.890Z,18.50
2023-01-25T02:55:23.561Z,18.50
2023-01-25T02:57:51.261Z,18.49
2023-01-25T03:00:20.570Z,18.49
2023-01-25T03:02:48.307Z,18.48
2023-01-25T03:05:16.232Z,18.48
2023-01-25T03:07:43.960Z,18.47
2023-01-25T03:10:12.519Z,18.47
2023-01-25T03:12:40.164Z,18.47
2023-01-25T03:15:09.899Z,18.46
2023-01-25T03:17:39.083Z,18.47
2023-01-25T03:20:07.625Z,18.47
2023-01-25T03:22:35.330Z,18.48
2023-01-25T03:25:03.092Z,18.49
2023-01-25T03:27:30.903Z,18.50
2023-01-25T03:29:58.573Z,18.50
2023-01-25T03:32:26.405Z,18.49
2023-01-25T03:34:55.459Z,18.49
2023-01-25T03:37:23.112Z,18.48
2023-01-25T03:39:50.790Z,18.48
2023-01-25T03:42:18.437Z,18.48
2023-01-25T03:44:46.133Z,18.47
2023-01-25T03:47:13.869Z,18.46
2023-01-25T03:49:41.564Z,18.45
2023-01-25T03:52:10.603Z,18.46
2023-01-25T03:54:38.280Z,18.46
2023-01-25T03:57:06.044Z,18.47
2023-01-25T03:59:33.720Z,18.48
2023-01-25T04:02:02.899Z,18.48
2023-01-25T04:04:30.894Z,18.49
2023-01-25T04:06:58.562Z,18.48
2023-01-25T04:09:27.580Z,18.48
2023-01-25T04:11:55.244Z,18.48
2023-01-25T04:14:38.743Z,18.46
2023-01-25T04:17:10.867Z,18.46
2023-01-25T04:19:38.586Z,18.46
2023-01-25T04:22:06.251Z,18.46
2023-01-25T04:24:35.279Z,18.45
2023-01-25T04:27:02.943Z,18.45
2023-01-25T04:29:40.662Z,18.45
2023-01-25T04:32:09.340Z,18.44
2023-01-25T04:34:37.122Z,18.44
2023-01-25T04:37:04.825Z,18.43
2023-01-25T04:39:32.502Z,18.45
2023-01-25T04:42:01.503Z,18.44
2023-01-25T04:44:29.156Z,18.46
2023-01-25T04:46:56.838Z,18.48
2023-01-25T04:49:24.543Z,18.47
2023-01-25T04:51:52.202Z,18.47
2023-01-25T04:54:19.865Z,18.47
2023-01-25T04:56:47.581Z,18.48
2023-01-25T04:59:16.675Z,18.46
2023-01-25T05:01:44.454Z,18.46
2023-01-25T05:04:12.108Z,18.44
2023-01-25T05:06:39.777Z,18.42
2023-01-25T05:09:07.442Z,18.42
2023-01-25T05:11:35.133Z,18.41
2023-01-25T05:14:02.791Z,18.41
2023-01-25T05:16:31.852Z,18.39
2023-01-25T05:18:59.553Z,18.38
2023-01-25T05:21:59.104Z,18.35
2023-01-25T05:24:26.884Z,18.34
2023-01-25T05:27:03.869Z,18.34
2023-01-25T05:29:32.422Z,18.37
2023-01-25T05:32:01.492Z,18.39
2023-01-25T05:34:29.224Z,18.40
2023-01-25T05:36:56.876Z,18.42
2023-01-25T05:39:24.623Z,18.44
2023-01-25T05:41:52.331Z,18.46
2023-01-25T05:44:20.004Z,18.47
2023-01-25T05:46:47.667Z,18.49
2023-01-25T05:49:16.766Z,18.49
2023-01-25T05:51:44.462Z,18.50
2023-01-25T05:54:14.537Z,18.50
2023-01-25T05:56:42.231Z,18.53
2023-01-25T05:59:11.101Z,18.51
2023-01-25T06:01:38.811Z,18.52
2023-01-25T06:04:06.701Z,18.52
2023-01-25T06:06:35.737Z,18.52
2023-01-25T06:09:03.408Z,18.53
2023-01-25T06:11:31.146Z,18.55
2023-01-25T06:13:58.824Z,18.55
2023-01-25T06:16:27.574Z,18.53
2023-01-25T06:18:55.321Z,18.51
2023-01-25T06:21:22.970Z,18.49
2023-01-25T06:23:51.998Z,18.46
2023-01-25T06:26:19.698Z,18.46
2023-01-25T06:28:47.378Z,18.45
2023-01-25T06:31:16.618Z,18.43
2023-01-25T06:33:44.430Z,18.43
2023-01-25T06:36:13.467Z,18.42
2023-01-25T06:38:41.248Z,18.39
2023-01-25T06:41:12.247Z,18.38
2023-01-25T06:43:40.076Z,18.35
2023-01-25T06:46:08.602Z,18.33
2023-01-25T06:48:36.479Z,18.31
2023-01-25T06:51:05.318Z,18.30
2023-01-25T06:53:34.091Z,18.28
2023-01-25T06:56:02.184Z,18.25
2023-01-25T06:58:31.521Z,18.25
2023-01-25T07:01:01.276Z,18.26
2023-01-25T07:03:29.199Z,18.26
2023-01-25T07:06:00.416Z,18.28
2023-01-25T07:08:28.150Z,18.29
2023-01-25T07:10:56.523Z,18.30
2023-01-25T07:13:24.527Z,18.30
2023-01-25T07:15:57.352Z,18.31
2023-01-25T07:18:25.249Z,18.32
2023-01-25T07:20:52.946Z,18.34
2023-01-25T07:23:20.962Z,18.36
2023-01-25T07:25:49.287Z,18.38
2023-01-25T07:28:17.442Z,18.40
2023-01-25T07:30:45.227Z,18.41
2023-01-25T07:33:14.283Z,18.45
2023-01-25T07:35:41.953Z,18.44
2023-01-25T07:38:09.621Z,18.44
2023-01-25T07:40:37.327Z,18.43
2023-01-25T07:43:05.828Z,18.41
2023-01-25T07:45:33.614Z,18.41
2023-01-25T07:48:01.376Z,18.40
2023-01-25T07:50:30.413Z,18.38
2023-01-25T07:52:59.390Z,18.35
2023-01-25T07:55:27.128Z,18.35
2023-01-25T07:57:55.899Z,18.34
2023-01-25T08:00:25.001Z,18.34
2023-01-25T08:02:52.912Z,18.34
2023-01-25T08:05:20.638Z,18.32
2023-01-25T08:07:49.774Z,18.30
2023-01-25T08:10:17.654Z,18.29
2023-01-25T08:12:46.642Z,18.27
2023-01-25T08:15:14.645Z,18.27
2023-01-25T08:17:42.409Z,18.27
2023-01-25T08:20:12.529Z,18.26
2023-01-25T08:22:40.248Z,18.23
2023-01-25T08:25:10.388Z,18.24
2023-01-25T08:27:38.307Z,18.24
2023-01-25T08:30:06.974Z,18.23
2023-01-25T08:32:37.222Z,18.24
2023-01-25T08:35:06.858Z,18.24
2023-01-25T08:37:34.768Z,18.24
2023-01-25T08:40:02.455Z,18.22
2023-01-25T08:42:31.476Z,18.20
2023-01-25T08:44:59.147Z,18.19
2023-01-25T08:47:26.898Z,18.18
2023-01-25T08:49:55.350Z,18.15
2023-01-25T08:52:23.105Z,18.14
2023-01-25T08:54:50.942Z,18.13
2023-01-25T08:57:18.620Z,18.11
2023-01-25T08:59:47.719Z,18.10
2023-01-25T09:02:15.395Z,18.10
2023-01-25T09:04:43.200Z,18.11
2023-01-25T09:07:10.863Z,18.11
2023-01-25T09:09:38.548Z,18.10
2023-01-25T09:12:06.915Z,18.10
2023-01-25T09:14:34.562Z,18.10
2023-01-25T09:17:03.582Z,18.10
2023-01-25T09:19:31.449Z,18.09
2023-01-25T09:21:59.116Z,18.09
2023-01-25T09:24:26.849Z,18.10
2023-01-25T09:26:59.605Z,18.09
2023-01-25T09:29:27.958Z,18.08
2023-01-25T09:31:55.762Z,18.07
2023-01-25T09:34:24.827Z,18.07
2023-01-25T09:36:52.561Z,18.08
2023-01-25T09:39:20.737Z,18.08
2023-01-25T09:42:14.693Z,18.08
2023-01-25T09:44:52.480Z,18.10
2023-01-25T09:47:22.317Z,18.11
2023-01-25T09:50:01.692Z,18.10
2023-01-25T09:52:50.749Z,18.10
2023-01-25T09:55:19.523Z,18.10
2023-01-25T09:57:48.038Z,18.10
2023-01-25T10:00:17.830Z,18.08
2023-01-25T10:02:48.739Z,18.10
2023-01-25T10:05:19.414Z,18.10
2023-01-25T10:07:54.595Z,18.09
2023-01-25T10:10:22.795Z,18.08
2023-01-25T10:12:50.470Z,18.10
2023-01-25T10:15:21.838Z,18.09
2023-01-25T10:17:58.134Z,18.10
2023-01-25T10:20:31.541Z,18.08
2023-01-25T10:23:09.057Z,18.08
2023-01-25T10:25:37.475Z,18.08
2023-01-25T10:28:17.465Z,18.08
2023-01-25T10:30:48.700Z,18.09
2023-01-25T10:33:17.556Z,18.10
2023-01-25T10:35:47.955Z,18.13
2023-01-25T10:38:19.292Z,18.13
2023-01-25T10:40:48.144Z,18.14
2023-01-25T10:43:18.076Z,18.14
2023-01-25T10:45:45.789Z,18.15
2023-01-25T10:48:16.853Z,18.16
2023-01-25T10:50:50.593Z,18.18
2023-01-25T10:53:26.619Z,18.18
2023-01-25T10:55:57.656Z,18.18
2023-01-25T10:58:36.306Z,18.18
2023-01-25T11:01:06.866Z,18.18
2023-01-25T11:03:35.943Z,18.17
2023-01-25T11:06:06.837Z,18.17
2023-01-25T11:08:35.887Z,18.17
2023-01-25T11:11:15.875Z,18.18
2023-01-25T11:13:43.601Z,18.21
2023-01-25T11:16:29.156Z,18.22
2023-01-25T11:18:57.577Z,18.21
2023-01-25T11:21:27.102Z,18.23
2023-01-25T11:24:18.028Z,18.20
2023-01-25T11:26:45.791Z,18.21
2023-01-25T11:29:15.591Z,18.19
2023-01-25T11:31:46.232Z,18.22
2023-01-25T11:34:15.104Z,18.25
2023-01-25T11:37:01.743Z,18.27
2023-01-25T11:39:37.971Z,18.29
2023-01-25T11:42:12.424Z,18.25
2023-01-25T11:45:08.441Z,18.23
2023-01-25T11:47:44.290Z,18.20
2023-01-25T11:50:14.880Z,18.19
2023-01-25T11:53:07.733Z,18.18
2023-01-25T11:55:37.756Z,18.18
2023-01-25T11:58:12.839Z,18.17
2023-01-25T12:00:49.759Z,18.17
2023-01-25T12:03:49.802Z,18.16
2023-01-25T12:06:19.129Z,18.16
2023-01-25T12:09:08.970Z,18.15
2023-01-25T12:11:44.545Z,18.13
2023-01-25T12:14:15.507Z,18.14
2023-01-25T12:16:50.992Z,18.13
2023-01-25T12:19:40.178Z,18.13
2023-01-25T12:22:17.338Z,18.13
2023-01-25T12:24:51.926Z,18.14
2023-01-25T12:27:26.397Z,18.14
2023-01-25T12:29:56.476Z,18.14
2023-01-25T12:32:25.627Z,18.14
2023-01-25T12:35:01.611Z,18.16
2023-01-25T12:37:31.182Z,18.16
2023-01-25T12:40:01.730Z,18.15
2023-01-25T12:42:32.568Z,18.16
2023-01-25T12:45:00.988Z,18.18
2023-01-25T12:47:32.890Z,18.18
2023-01-25T12:50:02.363Z,18.18
2023-01-25T12:52:31.808Z,18.19
2023-01-25T12:55:02.961Z,18.20
2023-01-25T12:57:33.951Z,18.20
2023-01-25T13:00:04.568Z,18.20
2023-01-25T13:02:43.269Z,18.21
2023-01-25T13:05:18.150Z,18.20
2023-01-25T13:07:54.291Z,18.19
2023-01-25T13:10:27.075Z,18.19
2023-01-25T13:12:55.198Z,18.21
2023-01-25T13:15:36.706Z,18.20
2023-01-25T13:18:27.214Z,18.19
2023-01-25T13:20:55.441Z,18.19
2023-01-25T13:23:31.891Z,18.20
2023-01-25T13:26:39.571Z,18.20
2023-01-25T13:29:52.179Z,18.19
2023-01-25T13:33:05.593Z,18.18
2023-01-25T13:35:44.968Z,18.20
2023-01-25T13:38:36.760Z,18.19
2023-01-25T13:41:11.997Z,18.20
2023-01-25T13:43:44.276Z,18.19
2023-01-25T13:46:13.791Z,18.18
2023-01-25T13:48:58.931Z,18.18
2023-01-25T13:51:28.548Z,18.18
2023-01-25T13:53:57.167Z,18.17
2023-01-25T13:56:26.488Z,18.19
2023-01-25T13:58:54.223Z,18.24
2023-01-25T14:01:23.793Z,18.28
2023-01-25T14:03:52.493Z,18.23
2023-01-25T14:06:23.220Z,18.20
2023-01-25T14:08:52.302Z,18.21
2023-01-25T14:11:20.746Z,18.18
2023-01-25T14:13:58.789Z,18.17
2023-01-25T14:16:27.461Z,18.16
2023-01-25T14:18:55.171Z,18.17
2023-01-25T14:21:23.594Z,18.17
2023-01-25T14:23:53.267Z,18.15
2023-01-25T14:26:23.106Z,18.15
2023-01-25T14:29:01.192Z,18.16
2023-01-25T14:31:32.285Z,18.15
2023-01-25T14:33:59.995Z,18.13
2023-01-25T14:36:28.650Z,18.12
2023-01-25T14:38:57.822Z,18.12
2023-01-25T14:41:27.522Z,18.10
2023-01-25T14:43:56.065Z,18.10
2023-01-25T14:46:28.187Z,18.13
2023-01-25T14:49:15.090Z,18.14
2023-01-25T14:51:43.589Z,18.14
2023-01-25T14:54:17.931Z,18.15
2023-01-25T14:56:46.397Z,18.16
2023-01-25T14:59:32.703Z,18.16
2023-01-25T15:02:02.342Z,18.18
2023-01-25T15:04:30.060Z,18.18
2023-01-25T15:07:01.208Z,18.18
2023-01-25T15:09:40.064Z,18.19
2023-01-25T15:12:25.012Z,18.18
2023-01-25T15:14:53.691Z,18.19
2023-01-25T15:17:41.180Z,18.19
2023-01-25T15:20:33.651Z,18.20
2023-01-25T15:23:02.592Z,18.22
2023-01-25T15:25:31.722Z,18.23
2023-01-25T15:27:59.403Z,18.24
2023-01-25T15:30:27.078Z,18.24
2023-01-25T15:32:54.727Z,18.24
2023-01-25T15:35:22.386Z,18.25
2023-01-25T15:37:50.065Z,18.25
2023-01-25T15:40:18.164Z,18.25
2023-01-25T15:42:47.228Z,18.23
2023-01-25T15:45:14.918Z,18.22
2023-01-25T15:47:42.603Z,18.19
2023-01-25T15:50:17.301Z,18.16
2023-01-25T15:52:45.510Z,18.15
2023-01-25T15:55:13.778Z,18.11
2023-01-25T15:57:41.470Z,18.08
2023-01-25T16:00:16.324Z,18.07
2023-01-25T16:02:44.123Z,18.06
2023-01-25T16:05:12.032Z,18.05
2023-01-25T16:07:40.037Z,18.03
2023-01-25T16:10:10.429Z,18.01
2023-01-25T16:12:38.379Z,18.02
2023-01-25T16:15:06.953Z,18.02
2023-01-25T16:17:35.967Z,18.01
2023-01-25T16:20:03.946Z,18.02
2023-01-25T16:22:31.619Z,18.02
2023-01-25T16:25:01.056Z,18.03
2023-01-25T16:27:35.689Z,18.03
2023-01-25T16:30:04.139Z,18.02
2023-01-25T16:32:31.802Z,18.03
2023-01-25T16:35:00.931Z,18.04
2023-01-25T16:37:28.594Z,18.05
2023-01-25T16:39:56.255Z,18.05
2023-01-25T16:42:24.096Z,18.05
2023-01-25T16:44:51.770Z,18.04
2023-01-25T16:47:19.459Z,18.03
2023-01-25T16:49:47.130Z,18.02
2023-01-25T16:52:16.148Z,18.01
2023-01-25T16:54:43.804Z,18.01
2023-01-25T16:57:20.234Z,18.00
2023-01-25T16:59:48.489Z,18.00
2023-01-25T17:02:16.194Z,18.02
2023-01-25T17:04:43.959Z,18.03
2023-01-25T17:07:12.263Z,18.04
2023-01-25T17:09:41.282Z,18.03
2023-01-25T17:12:09.361Z,18.03
2023-01-25T17:14:37.226Z,18.03
2023-01-25T17:17:05.382Z,18.04
2023-01-25T17:19:33.202Z,18.05
2023-01-25T17:22:00.862Z,18.05
2023-01-25T17:24:29.041Z,18.04
2023-01-25T17:26:58.235Z,18.04
2023-01-25T17:29:25.992Z,18.05
2023-01-25T17:31:53.966Z,18.05
2023-01-25T17:34:21.948Z,18.06
2023-01-25T17:36:49.986Z,18.06
2023-01-25T17:39:19.333Z,18.05
2023-01-25T17:41:47.794Z,18.04
2023-01-25T17:44:20.018Z,18.03
2023-01-25T17:46:47.712Z,18.03
2023-01-25T17:49:16.668Z,18.05
2023-01-25T17:51:44.397Z,18.07
2023-01-25T17:54:12.282Z,18.07
2023-01-25T17:56:40.052Z,18.05
2023-01-25T17:59:11.349Z,18.06
2023-01-25T18:01:42.729Z,18.04
2023-01-25T18:04:10.542Z,18.04
2023-01-25T18:06:38.212Z,18.05
2023-01-25T18:09:07.026Z,18.06
2023-01-25T18:11:35.838Z,18.06
2023-01-25T18:14:04.860Z,18.08
2023-01-25T18:16:32.994Z,18.07
2023-01-25T18:19:02.149Z,18.06
2023-01-25T18:21:31.926Z,18.04
2023-01-25T18:24:00.691Z,18.04
2023-01-25T18:26:29.655Z,18.03
2023-01-25T18:28:59.834Z,18.02
2023-01-25T18:31:27.791Z,18.01
2023-01-25T18:33:55.530Z,18.02
2023-01-25T18:36:25.153Z,18.02
2023-01-25T18:38:52.827Z,18.00
2023-01-25T18:41:20.547Z,18.03
2023-01-25T18:43:49.645Z,18.08
2023-01-25T18:46:17.377Z,18.08
2023-01-25T18:48:47.147Z,18.09
2023-01-25T18:51:17.333Z,18.07
2023-01-25T18:53:47.826Z,18.08
2023-01-25T18:56:16.266Z,18.07
2023-01-25T18:58:44.006Z,18.08
2023-01-25T19:01:12.607Z,18.08
2023-01-25T19:03:40.311Z,18.09
2023-01-25T19:06:08.404Z,18.10
2023-01-25T19:08:40.601Z,18.09
2023-01-25T19:11:11.438Z,18.11
2023-01-25T19:13:39.613Z,18.12
2023-01-25T19:16:08.664Z,18.14
2023-01-25T19:18:40.557Z,18.17
2023-01-25T19:21:08.737Z,18.19
2023-01-25T19:23:36.948Z,18.21
2023-01-25T19:26:05.195Z,18.20
2023-01-25T19:28:36.542Z,18.22
2023-01-25T19:31:07.895Z,18.23
2023-01-25T19:33:35.698Z,18.23
2023-01-25T19:36:04.952Z,18.21
2023-01-25T19:38:32.983Z,18.29
2023-01-25T19:41:04.780Z,18.30
2023-01-25T19:43:33.836Z,18.32
2023-01-25T19:46:09.355Z,18.33
2023-01-25T19:48:37.247Z,18.34
2023-01-25T19:51:12.118Z,18.34
2023-01-25T19:53:40.057Z,18.35
2023-01-25T19:56:09.120Z,18.34
2023-01-25T19:58:38.159Z,18.33
2023-01-25T20:01:07.204Z,18.33
2023-01-25T20:03:34.920Z,18.34
2023-01-25T20:06:03.304Z,18.34
2023-01-25T20:08:31.154Z,18.33
2023-01-25T20:11:00.128Z,18.32
2023-01-25T20:13:27.950Z,18.32
2023-01-25T20:15:57.205Z,18.33
2023-01-25T20:18:24.944Z,18.32
2023-01-25T20:20:56.969Z,18.33
2023-01-25T20:23:24.650Z,18.32
2023-01-25T20:25:59.035Z,18.29
2023-01-25T20:28:26.809Z,18.30
2023-01-25T20:30:54.650Z,18.29
2023-01-25T20:33:23.722Z,18.28
2023-01-25T20:35:51.402Z,18.29
2023-01-25T20:38:19.105Z,18.29
2023-01-25T20:40:46.776Z,18.29
2023-01-25T20:43:14.444Z,18.29
2023-01-25T20:45:42.205Z,18.29
2023-01-25T20:48:09.897Z,18.29
2023-01-25T20:50:38.911Z,18.31
2023-01-25T20:53:06.575Z,18.31
2023-01-25T20:55:34.531Z,18.32
2023-01-25T20:58:02.212Z,18.34
2023-01-25T21:00:30.069Z,18.34
2023-01-25T21:02:57.745Z,18.37
2023-01-25T21:05:25.462Z,18.38
2023-01-25T21:07:54.543Z,18.40
2023-01-25T21:10:22.278Z,18.40
2023-01-25T21:12:49.939Z,18.41
2023-01-25T21:15:18.762Z,18.38
2023-01-25T21:17:46.412Z,18.37
2023-01-25T21:20:14.130Z,18.37
2023-01-25T21:22:41.804Z,18.35
2023-01-25T21:25:12.591Z,18.35
2023-01-25T21:27:40.299Z,18.34
2023-01-25T21:30:09.581Z,18.31
2023-01-25T21:32:37.242Z,18.31
2023-01-25T21:35:05.470Z,18.30
2023-01-25T21:37:33.153Z,18.29
2023-01-25T21:40:00.821Z,18.29
2023-01-25T21:42:32.289Z,18.26
2023-01-25T21:45:17.815Z,18.26
2023-01-25T21:47:45.475Z,18.23
2023-01-25T21:50:31.010Z,18.21
2023-01-25T21:52:58.662Z,18.20
2023-01-25T21:55:26.355Z,18.19
2023-01-25T21:57:55.392Z,18.19
2023-01-25T22:00:23.259Z,18.17
2023-01-25T22:02:51.715Z,18.17
2023-01-25T22:05:19.419Z,18.14
2023-01-25T22:07:47.094Z,18.15
2023-01-25T22:10:14.947Z,18.14
2023-01-25T22:12:42.663Z,18.15
2023-01-25T22:15:12.426Z,18.13
2023-01-25T22:17:40.084Z,18.13
2023-01-25T22:20:08.973Z,18.13
2023-01-25T22:22:36.754Z,18.14
2023-01-25T22:25:04.612Z,18.14
2023-01-25T22:27:37.868Z,18.15
2023-01-25T22:30:06.662Z,18.12
2023-01-25T22:32:35.705Z,18.13
2023-01-25T22:35:03.414Z,18.12
2023-01-25T22:37:31.083Z,18.12
2023-01-25T22:39:58.825Z,18.11
2023-01-25T22:42:26.549Z,18.12
2023-01-25T22:44:54.230Z,18.12
2023-01-25T22:47:21.886Z,18.12
2023-01-25T22:49:51.112Z,18.12
2023-01-25T22:52:18.787Z,18.11
2023-01-25T22:54:46.448Z,18.10
2023-01-25T22:57:14.140Z,18.11
2023-01-25T22:59:41.814Z,18.11
2023-01-25T23:02:09.522Z,18.10
2023-01-25T23:04:37.315Z,18.12
2023-01-25T23:07:12.456Z,18.14
2023-01-25T23:09:41.035Z,18.14
2023-01-25T23:12:08.789Z,18.12
2023-01-25T23:14:51.220Z,18.12
2023-01-25T23:17:36.810Z,18.12
2023-01-25T23:20:04.947Z,18.13
2023-01-25T23:22:34.115Z,18.14
2023-01-25T23:25:01.846Z,18.13
2023-01-25T23:27:29.496Z,18.14
2023-01-25T23:29:57.169Z,18.15
2023-01-25T23:32:24.848Z,18.15
2023-01-25T23:34:53.376Z,18.15
2023-01-25T23:37:22.885Z,18.15
2023-01-25T23:39:51.973Z,18.14
2023-01-25T23:42:19.675Z,18.15
2023-01-25T23:44:47.361Z,18.16
2023-01-25T23:47:15.014Z,18.15
2023-01-25T23:49:42.687Z,18.16
2023-01-25T23:52:10.360Z,18.19
2023-01-25T23:54:38.022Z,18.21
2023-01-25T23:57:07.080Z,18.24
2023-01-25T23:59:34.883Z,18.27
